Albuquerque, New Mexico
Current Conditions -  °F | °C
As of 10:52 PM on Tuesday 21 Oct 2014 (Local Time) from KABQ Reporting Station
Scattered Clouds Scattered Clouds  
Wind Chill: 57°   Ceiling: Unl
Heat Index: 57°   Visibility: 10mi
Dew Point: 47°   Wind: 3mph
Humidity: 69%   Direction: 280°W
Pressure: 30.12"   Gusts: NA
Location:  35.08°N, 106.64°W
Report Text: KABQ 220452Z 28003KT 10SM SCT100 SCT200 14/08 A3012 RMK AO2 SLP145 T01390083
Loading
Personal Weather Stations






























Interactive Weather Map New forecast layout! Learn more

10-Day Weather Forecast

Advertisements
Track Severe Weather on mobile